LHA280 LEZL-EDDM
Flight info
| Callsign | LHA280 |
|---|---|
| Flight time | N/A |
| Altitude | 38000 |
| Route | HIJ N10 VTB N871 TOPTU DCT TOU DCT GAI DCT MEN DCT NINUN DCT LATAM DCT ETREK DCT LTP DCT SOPLO DCT OMASI DCT KINNI DCT SOSAL DCT KORED DCT BERSU DCT DITON DCT NUNRI T103 BETOS |
| Aircraft | A339/H-SDE1E2FGHIJ1J4RWXYZ/S |
Departure
| Time | 2026-05-06 16:49 |
|---|---|
| Airport | Seville Airport (LEZL) |
Arrival
| Time | N/A |
|---|---|
| Airport | Munich Airport (EDDM) |
| Time | Latitude | Longitude | Altitude | Speed | Heading |
|---|---|---|---|---|---|
| 2026-05-06 16:22 | 37.42144 | -5.90047 | 99 ft | 0 kts | 8° |
| 2026-05-06 16:37 | 37.42132 | -5.90050 | 99 ft | 2 kts | 8° |
| 2026-05-06 16:37 | 37.42117 | -5.90052 | 99 ft | 2 kts | 8° |
| 2026-05-06 16:37 | 37.42102 | -5.90055 | 98 ft | 2 kts | 8° |
| 2026-05-06 16:38 | 37.42088 | -5.90058 | 98 ft | 2 kts | 8° |
| 2026-05-06 16:38 | 37.42073 | -5.90061 | 98 ft | 2 kts | 11° |
| 2026-05-06 16:38 | 37.42059 | -5.90069 | 98 ft | 2 kts | 49° |
| 2026-05-06 16:38 | 37.42051 | -5.90085 | 97 ft | 2 kts | 79° |
| 2026-05-06 16:39 | 37.42051 | -5.90094 | 97 ft | 1 kts | 92° |
| 2026-05-06 16:39 | 37.42051 | -5.90099 | 97 ft | 0 kts | 90° |
| 2026-05-06 16:41 | 37.42050 | -5.90065 | 97 ft | 8 kts | 90° |
| 2026-05-06 16:41 | 37.42049 | -5.89983 | 98 ft | 9 kts | 93° |
| 2026-05-06 16:42 | 37.42020 | -5.89912 | 98 ft | 9 kts | 146° |
| 2026-05-06 16:42 | 37.41998 | -5.89895 | 98 ft | 10 kts | 134° |
| 2026-05-06 16:42 | 37.41984 | -5.89842 | 99 ft | 5 kts | 96° |
| 2026-05-06 16:42 | 37.41982 | -5.89780 | 99 ft | 8 kts | 90° |
| 2026-05-06 16:43 | 37.41981 | -5.89694 | 99 ft | 11 kts | 90° |
| 2026-05-06 16:43 | 37.41981 | -5.89584 | 99 ft | 13 kts | 90° |
| 2026-05-06 16:43 | 37.41981 | -5.89457 | 99 ft | 15 kts | 89° |
| 2026-05-06 16:43 | 37.41981 | -5.89314 | 100 ft | 16 kts | 90° |
| 2026-05-06 16:44 | 37.41981 | -5.89160 | 100 ft | 18 kts | 90° |
| 2026-05-06 16:44 | 37.41981 | -5.88994 | 100 ft | 19 kts | 89° |
| 2026-05-06 16:44 | 37.41982 | -5.88822 | 100 ft | 20 kts | 89° |
| 2026-05-06 16:44 | 37.41982 | -5.88648 | 103 ft | 19 kts | 90° |
| 2026-05-06 16:45 | 37.41983 | -5.88474 | 104 ft | 20 kts | 90° |
| 2026-05-06 16:45 | 37.41983 | -5.88302 | 107 ft | 19 kts | 89° |
| 2026-05-06 16:45 | 37.41984 | -5.88137 | 110 ft | 18 kts | 89° |
| 2026-05-06 16:45 | 37.41985 | -5.87968 | 110 ft | 19 kts | 90° |
| 2026-05-06 16:46 | 37.41985 | -5.87806 | 113 ft | 17 kts | 89° |
| 2026-05-06 16:46 | 37.41987 | -5.87649 | 113 ft | 17 kts | 89° |
| 2026-05-06 16:46 | 37.41988 | -5.87506 | 116 ft | 15 kts | 89° |
| 2026-05-06 16:46 | 37.41978 | -5.87369 | 116 ft | 15 kts | 112° |
| 2026-05-06 16:47 | 37.41891 | -5.87336 | 116 ft | 15 kts | 209° |
| 2026-05-06 16:47 | 37.41819 | -5.87432 | 116 ft | 13 kts | 237° |
| 2026-05-06 16:47 | 37.41804 | -5.87506 | 116 ft | 0 kts | 268° |
| 2026-05-06 16:48 | 37.41804 | -5.87507 | 116 ft | 1 kts | 268° |
| 2026-05-06 16:48 | 37.41804 | -5.87538 | 115 ft | 10 kts | 268° |
| 2026-05-06 16:48 | 37.41798 | -5.87929 | 110 ft | 77 kts | 269° |
| 2026-05-06 16:49 | 37.41795 | -5.88868 | 100 ft | 133 kts | 271° |
| 2026-05-06 16:49 | 37.41784 | -5.90219 | 100 ft | 176 kts | 268° |
| 2026-05-06 16:49 | 37.41818 | -5.91779 | 617 ft | 176 kts | 278° |
| 2026-05-06 16:49 | 37.42258 | -5.93136 | 1217 ft | 172 kts | 310° |
| 2026-05-06 16:50 | 37.43153 | -5.94191 | 1519 ft | 186 kts | 317° |
| 2026-05-06 16:50 | 37.44153 | -5.95304 | 1942 ft | 192 kts | 316° |
| 2026-05-06 16:50 | 37.45156 | -5.96469 | 2256 ft | 206 kts | 316° |
| 2026-05-06 16:50 | 37.46247 | -5.97744 | 2540 ft | 222 kts | 316° |
| 2026-05-06 16:51 | 37.47411 | -5.99102 | 2828 ft | 237 kts | 316° |
| 2026-05-06 16:51 | 37.48683 | -6.00584 | 3186 ft | 257 kts | 316° |
| 2026-05-06 16:51 | 37.50026 | -6.02143 | 3767 ft | 268 kts | 316° |
| 2026-05-06 16:51 | 37.51396 | -6.03735 | 4528 ft | 270 kts | 316° |
| 2026-05-06 16:52 | 37.52777 | -6.05344 | 5270 ft | 274 kts | 316° |
| 2026-05-06 16:52 | 37.54168 | -6.06968 | 5957 ft | 278 kts | 316° |
| 2026-05-06 16:52 | 37.55580 | -6.08615 | 6618 ft | 282 kts | 317° |
| 2026-05-06 16:52 | 37.57047 | -6.10262 | 7333 ft | 284 kts | 324° |
| 2026-05-06 16:53 | 37.58854 | -6.11184 | 8053 ft | 286 kts | 353° |
| 2026-05-06 16:53 | 37.60819 | -6.10935 | 8831 ft | 287 kts | 20° |
| 2026-05-06 16:53 | 37.62499 | -6.09633 | 9526 ft | 289 kts | 41° |
| 2026-05-06 16:53 | 37.64003 | -6.07932 | 10180 ft | 293 kts | 41° |
| 2026-05-06 16:54 | 37.65547 | -6.06184 | 10539 ft | 308 kts | 41° |
| 2026-05-06 16:54 | 37.67205 | -6.04316 | 10848 ft | 325 kts | 41° |
| 2026-05-06 16:54 | 37.68938 | -6.02376 | 11150 ft | 341 kts | 41° |
| 2026-05-06 16:54 | 37.70729 | -6.00375 | 11648 ft | 350 kts | 41° |
| 2026-05-06 16:55 | 37.72564 | -5.98329 | 12314 ft | 354 kts | 41° |
| 2026-05-06 16:55 | 37.74403 | -5.96279 | 12949 ft | 358 kts | 41° |
| 2026-05-06 16:55 | 37.76287 | -5.94180 | 13582 ft | 363 kts | 41° |
| 2026-05-06 16:55 | 37.78188 | -5.92061 | 14208 ft | 368 kts | 41° |
| 2026-05-06 16:56 | 37.80108 | -5.89919 | 14845 ft | 371 kts | 41° |
| 2026-05-06 16:56 | 37.82037 | -5.87766 | 15506 ft | 374 kts | 41° |
| 2026-05-06 16:56 | 37.84000 | -5.85572 | 16156 ft | 377 kts | 41° |
| 2026-05-06 16:56 | 37.85973 | -5.83367 | 16767 ft | 381 kts | 41° |
| 2026-05-06 16:57 | 37.87962 | -5.81142 | 17382 ft | 385 kts | 41° |
| 2026-05-06 16:57 | 37.89958 | -5.78908 | 17987 ft | 389 kts | 40° |
| 2026-05-06 16:57 | 37.91989 | -5.76635 | 18605 ft | 393 kts | 41° |
| 2026-05-06 16:57 | 37.94047 | -5.74329 | 19195 ft | 397 kts | 40° |
| 2026-05-06 16:58 | 37.96109 | -5.72017 | 19767 ft | 401 kts | 40° |
| 2026-05-06 16:58 | 37.98221 | -5.69648 | 20327 ft | 405 kts | 40° |
| 2026-05-06 16:58 | 38.00346 | -5.67263 | 20881 ft | 409 kts | 40° |
| 2026-05-06 16:58 | 38.02467 | -5.64878 | 21401 ft | 414 kts | 40° |
| 2026-05-06 16:59 | 38.04608 | -5.62468 | 21910 ft | 418 kts | 41° |
| 2026-05-06 16:59 | 38.06791 | -5.60011 | 22415 ft | 422 kts | 40° |
| 2026-05-06 16:59 | 38.09012 | -5.57506 | 22901 ft | 426 kts | 40° |
| 2026-05-06 16:59 | 38.11212 | -5.55023 | 23366 ft | 430 kts | 40° |
| 2026-05-06 17:00 | 38.13475 | -5.52469 | 23835 ft | 434 kts | 40° |
| 2026-05-06 17:00 | 38.15723 | -5.49927 | 24303 ft | 437 kts | 40° |
| 2026-05-06 17:00 | 38.17986 | -5.47367 | 24751 ft | 441 kts | 40° |
| 2026-05-06 17:00 | 38.20296 | -5.44753 | 25195 ft | 444 kts | 40° |
| 2026-05-06 17:01 | 38.22602 | -5.42139 | 25579 ft | 448 kts | 40° |
| 2026-05-06 17:01 | 38.24924 | -5.39506 | 25978 ft | 452 kts | 40° |
| 2026-05-06 17:01 | 38.27264 | -5.36851 | 26359 ft | 455 kts | 40° |
| 2026-05-06 17:01 | 38.29641 | -5.34151 | 26744 ft | 458 kts | 40° |
| 2026-05-06 17:02 | 38.32010 | -5.31457 | 27111 ft | 461 kts | 40° |
| 2026-05-06 17:02 | 38.34429 | -5.28704 | 27485 ft | 464 kts | 40° |
| 2026-05-06 17:02 | 38.36843 | -5.25952 | 27842 ft | 467 kts | 40° |
| 2026-05-06 17:02 | 38.39242 | -5.23217 | 28173 ft | 471 kts | 40° |
| 2026-05-06 17:03 | 38.41702 | -5.20407 | 28501 ft | 474 kts | 40° |
| 2026-05-06 17:03 | 38.44161 | -5.17598 | 28816 ft | 477 kts | 40° |
| 2026-05-06 17:03 | 38.46623 | -5.14782 | 29117 ft | 481 kts | 40° |
| 2026-05-06 17:03 | 38.49127 | -5.11913 | 29462 ft | 483 kts | 40° |
| 2026-05-06 17:04 | 38.51602 | -5.09004 | 29785 ft | 486 kts | 42° |
| 2026-05-06 17:04 | 38.54020 | -5.06013 | 30098 ft | 488 kts | 43° |
| 2026-05-06 17:04 | 38.56429 | -5.02992 | 30397 ft | 491 kts | 43° |
| 2026-05-06 17:04 | 38.58862 | -4.99929 | 30679 ft | 494 kts | 43° |
| 2026-05-06 17:05 | 38.61339 | -4.96810 | 30968 ft | 496 kts | 43° |
| 2026-05-06 17:05 | 38.63789 | -4.93722 | 31256 ft | 498 kts | 43° |
| 2026-05-06 17:05 | 38.66238 | -4.90638 | 31548 ft | 500 kts | 43° |
| 2026-05-06 17:05 | 38.68736 | -4.87489 | 31842 ft | 502 kts | 43° |
| 2026-05-06 17:06 | 38.71206 | -4.84374 | 32178 ft | 503 kts | 43° |
| 2026-05-06 17:06 | 38.73693 | -4.81233 | 32577 ft | 501 kts | 43° |
| 2026-05-06 17:06 | 38.76170 | -4.78105 | 32954 ft | 501 kts | 43° |
| 2026-05-06 17:06 | 38.78624 | -4.74999 | 33334 ft | 500 kts | 43° |
| 2026-05-06 17:07 | 38.81076 | -4.71894 | 33738 ft | 498 kts | 43° |
| 2026-05-06 17:07 | 38.83532 | -4.68781 | 34080 ft | 498 kts | 43° |
| 2026-05-06 17:07 | 38.86015 | -4.65627 | 34416 ft | 497 kts | 43° |
| 2026-05-06 17:07 | 38.88442 | -4.62545 | 34698 ft | 497 kts | 43° |
| 2026-05-06 17:08 | 38.90898 | -4.59419 | 34964 ft | 496 kts | 43° |
| 2026-05-06 17:08 | 38.93321 | -4.56334 | 35226 ft | 495 kts | 42° |
| 2026-05-06 17:08 | 38.95760 | -4.53230 | 35467 ft | 494 kts | 42° |
| 2026-05-06 17:08 | 38.98197 | -4.50123 | 35658 ft | 494 kts | 42° |
| 2026-05-06 17:09 | 39.00609 | -4.47047 | 35844 ft | 493 kts | 42° |
| 2026-05-06 17:09 | 39.03063 | -4.43912 | 36022 ft | 493 kts | 43° |
| 2026-05-06 17:09 | 39.05459 | -4.40846 | 36238 ft | 493 kts | 42° |
| 2026-05-06 17:09 | 39.07903 | -4.37717 | 36440 ft | 494 kts | 42° |
| 2026-05-06 17:10 | 39.10334 | -4.34601 | 36620 ft | 496 kts | 43° |
| 2026-05-06 17:10 | 39.12777 | -4.31467 | 36812 ft | 497 kts | 43° |
| 2026-05-06 17:10 | 39.15227 | -4.28317 | 37013 ft | 497 kts | 43° |
| 2026-05-06 17:10 | 39.17665 | -4.25179 | 37197 ft | 498 kts | 43° |
| 2026-05-06 17:11 | 39.20109 | -4.22032 | 37352 ft | 499 kts | 43° |
| 2026-05-06 17:11 | 39.22539 | -4.18899 | 37512 ft | 500 kts | 43° |
| 2026-05-06 17:11 | 39.24994 | -4.15732 | 37675 ft | 501 kts | 43° |
| 2026-05-06 17:11 | 39.27538 | -4.12704 | 37844 ft | 499 kts | 38° |
| 2026-05-06 17:12 | 39.30218 | -4.09880 | 37908 ft | 500 kts | 36° |
| 2026-05-06 17:12 | 39.35703 | -4.04301 | 37919 ft | 501 kts | 36° |
| 2026-05-06 17:13 | 39.41115 | -3.98734 | 37923 ft | 502 kts | 36° |
| 2026-05-06 17:13 | 39.46547 | -3.93074 | 37926 ft | 502 kts | 36° |
| 2026-05-06 17:14 | 39.51979 | -3.87382 | 37928 ft | 501 kts | 36° |
| 2026-05-06 17:14 | 39.57370 | -3.81716 | 37926 ft | 502 kts | 36° |
| 2026-05-06 17:15 | 39.62775 | -3.76021 | 37921 ft | 501 kts | 36° |
| 2026-05-06 17:15 | 39.68149 | -3.70345 | 37916 ft | 501 kts | 36° |
| 2026-05-06 17:16 | 39.73528 | -3.64654 | 37914 ft | 500 kts | 36° |
| 2026-05-06 17:16 | 39.78927 | -3.58930 | 37914 ft | 501 kts | 36° |
| 2026-05-06 17:17 | 39.84302 | -3.53220 | 37915 ft | 500 kts | 36° |
| 2026-05-06 17:17 | 39.89673 | -3.47498 | 37918 ft | 500 kts | 36° |
| 2026-05-06 17:18 | 39.95028 | -3.41785 | 37921 ft | 501 kts | 36° |
| 2026-05-06 17:18 | 40.00421 | -3.36023 | 37922 ft | 501 kts | 36° |
| 2026-05-06 17:19 | 40.05777 | -3.30283 | 37919 ft | 502 kts | 37° |
| 2026-05-06 17:19 | 40.11185 | -3.24474 | 37913 ft | 501 kts | 37° |
| 2026-05-06 17:20 | 40.16522 | -3.18732 | 37913 ft | 501 kts | 37° |
| 2026-05-06 17:20 | 40.21874 | -3.12962 | 37915 ft | 500 kts | 37° |
| 2026-05-06 17:21 | 40.27225 | -3.07180 | 37915 ft | 500 kts | 37° |
| 2026-05-06 17:21 | 40.32594 | -3.01367 | 37923 ft | 500 kts | 37° |
| 2026-05-06 17:22 | 40.37933 | -2.95573 | 37927 ft | 500 kts | 37° |
| 2026-05-06 17:22 | 40.43269 | -2.89771 | 37937 ft | 501 kts | 37° |
| 2026-05-06 17:23 | 40.48641 | -2.83915 | 37945 ft | 501 kts | 37° |
| 2026-05-06 17:23 | 40.53945 | -2.78123 | 37947 ft | 500 kts | 37° |
| 2026-05-06 17:24 | 40.59274 | -2.72289 | 37952 ft | 500 kts | 37° |
| 2026-05-06 17:24 | 40.64605 | -2.66444 | 37950 ft | 499 kts | 37° |
| 2026-05-06 17:25 | 40.69927 | -2.60595 | 37958 ft | 500 kts | 37° |
| 2026-05-06 17:25 | 40.75261 | -2.54717 | 37961 ft | 499 kts | 37° |
| 2026-05-06 17:26 | 40.80553 | -2.48878 | 37960 ft | 500 kts | 37° |
| 2026-05-06 17:26 | 40.85903 | -2.42959 | 37961 ft | 500 kts | 37° |
| 2026-05-06 17:27 | 40.91187 | -2.37099 | 37966 ft | 500 kts | 37° |
| 2026-05-06 17:27 | 40.96502 | -2.31194 | 37967 ft | 500 kts | 38° |
| 2026-05-06 17:28 | 41.01790 | -2.25304 | 37966 ft | 499 kts | 38° |
| 2026-05-06 17:28 | 41.07108 | -2.19369 | 37975 ft | 499 kts | 37° |
| 2026-05-06 17:29 | 41.12410 | -2.13441 | 37973 ft | 499 kts | 38° |
| 2026-05-06 17:29 | 41.17685 | -2.07531 | 37969 ft | 498 kts | 38° |
| 2026-05-06 17:30 | 41.22947 | -2.01621 | 37974 ft | 498 kts | 38° |
| 2026-05-06 17:30 | 41.28244 | -1.95656 | 37977 ft | 499 kts | 38° |
| 2026-05-06 17:31 | 41.33518 | -1.89704 | 37976 ft | 499 kts | 38° |
| 2026-05-06 17:31 | 41.38785 | -1.83745 | 37974 ft | 498 kts | 38° |
| 2026-05-06 17:32 | 41.44038 | -1.77793 | 37970 ft | 498 kts | 37° |
| 2026-05-06 17:32 | 41.49280 | -1.71839 | 37966 ft | 498 kts | 38° |
| 2026-05-06 17:33 | 41.54533 | -1.65861 | 37964 ft | 497 kts | 38° |
| 2026-05-06 17:33 | 41.59790 | -1.59865 | 37960 ft | 497 kts | 38° |
| 2026-05-06 17:34 | 41.65032 | -1.53870 | 37956 ft | 497 kts | 37° |
| 2026-05-06 17:34 | 41.70266 | -1.47875 | 37953 ft | 497 kts | 37° |
| 2026-05-06 17:35 | 41.75521 | -1.41836 | 37951 ft | 498 kts | 37° |
| 2026-05-06 17:35 | 41.80734 | -1.35834 | 37949 ft | 496 kts | 37° |
| 2026-05-06 17:36 | 41.88559 | -1.26805 | 37953 ft | 496 kts | 38° |
| 2026-05-06 17:36 | 41.93773 | -1.20772 | 37948 ft | 497 kts | 38° |
| 2026-05-06 17:37 | 41.99001 | -1.14706 | 37941 ft | 496 kts | 38° |
| 2026-05-06 17:37 | 42.04180 | -1.08685 | 37953 ft | 495 kts | 38° |
| 2026-05-06 17:38 | 42.09368 | -1.02640 | 38036 ft | 496 kts | 38° |
| 2026-05-06 17:38 | 42.14581 | -0.96551 | 37971 ft | 495 kts | 38° |
| 2026-05-06 17:39 | 42.19756 | -0.90492 | 37962 ft | 494 kts | 38° |
| 2026-05-06 17:39 | 42.24900 | -0.84456 | 37954 ft | 494 kts | 38° |
| 2026-05-06 17:40 | 42.30071 | -0.78379 | 37955 ft | 493 kts | 38° |
| 2026-05-06 17:40 | 42.35221 | -0.72311 | 37959 ft | 493 kts | 38° |
| 2026-05-06 17:41 | 42.40390 | -0.66205 | 37962 ft | 493 kts | 38° |
| 2026-05-06 17:41 | 42.45536 | -0.60113 | 37957 ft | 492 kts | 38° |
| 2026-05-06 17:42 | 42.50671 | -0.54019 | 37951 ft | 493 kts | 38° |
| 2026-05-06 17:42 | 42.55792 | -0.47930 | 37950 ft | 492 kts | 38° |
| 2026-05-06 17:43 | 42.60907 | -0.41834 | 37951 ft | 491 kts | 38° |
| 2026-05-06 17:43 | 42.66041 | -0.35701 | 37949 ft | 492 kts | 38° |
| 2026-05-06 17:44 | 42.71153 | -0.29578 | 37944 ft | 491 kts | 39° |
| 2026-05-06 17:44 | 42.76264 | -0.23440 | 37939 ft | 492 kts | 39° |
| 2026-05-06 17:45 | 42.81114 | -0.16883 | 37936 ft | 494 kts | 46° |
| 2026-05-06 17:45 | 42.85511 | -0.09737 | 37940 ft | 495 kts | 49° |
| 2026-05-06 17:46 | 42.89855 | -0.02456 | 37943 ft | 496 kts | 49° |
| 2026-05-06 17:46 | 42.94191 | 0.04808 | 37952 ft | 496 kts | 49° |
| 2026-05-06 17:47 | 42.98530 | 0.12071 | 37957 ft | 496 kts | 49° |
| 2026-05-06 17:47 | 43.02885 | 0.19379 | 37979 ft | 496 kts | 49° |
| 2026-05-06 17:48 | 43.07207 | 0.26648 | 37982 ft | 496 kts | 49° |
| 2026-05-06 17:48 | 43.11536 | 0.33945 | 37976 ft | 495 kts | 49° |
| 2026-05-06 17:49 | 43.15868 | 0.41265 | 37978 ft | 496 kts | 49° |
| 2026-05-06 17:49 | 43.20173 | 0.48557 | 37970 ft | 495 kts | 49° |
| 2026-05-06 17:50 | 43.24482 | 0.55872 | 37971 ft | 496 kts | 49° |
| 2026-05-06 17:50 | 43.28788 | 0.63208 | 37966 ft | 496 kts | 49° |
| 2026-05-06 17:51 | 43.33126 | 0.70614 | 37960 ft | 497 kts | 50° |
| 2026-05-06 17:51 | 43.37420 | 0.77961 | 37968 ft | 497 kts | 50° |
| 2026-05-06 17:52 | 43.41720 | 0.85337 | 37960 ft | 496 kts | 50° |
| 2026-05-06 17:52 | 43.46034 | 0.92753 | 37971 ft | 496 kts | 50° |
| 2026-05-06 17:53 | 43.50321 | 1.00146 | 37964 ft | 497 kts | 50° |
| 2026-05-06 17:53 | 43.54589 | 1.07526 | 37966 ft | 497 kts | 50° |
| 2026-05-06 17:54 | 43.58895 | 1.14989 | 37968 ft | 497 kts | 50° |
| 2026-05-06 17:54 | 43.63150 | 1.22384 | 37968 ft | 496 kts | 50° |
| 2026-05-06 17:55 | 43.67439 | 1.29860 | 37968 ft | 496 kts | 50° |
| 2026-05-06 17:55 | 43.71603 | 1.37440 | 37969 ft | 496 kts | 52° |
| 2026-05-06 17:56 | 43.75654 | 1.45092 | 37966 ft | 496 kts | 52° |
| 2026-05-06 17:56 | 43.79716 | 1.52756 | 37961 ft | 497 kts | 52° |
| 2026-05-06 17:57 | 43.83787 | 1.60426 | 37959 ft | 496 kts | 52° |
| 2026-05-06 17:57 | 43.87859 | 1.68114 | 37952 ft | 497 kts | 53° |
| 2026-05-06 17:58 | 43.91925 | 1.75815 | 37950 ft | 496 kts | 53° |
| 2026-05-06 17:58 | 43.95993 | 1.83547 | 37950 ft | 496 kts | 53° |
| 2026-05-06 17:59 | 43.99916 | 1.91364 | 37945 ft | 496 kts | 55° |
| 2026-05-06 17:59 | 44.03830 | 1.99270 | 37947 ft | 497 kts | 54° |
| 2026-05-06 18:00 | 44.07715 | 2.07113 | 37944 ft | 497 kts | 54° |
| 2026-05-06 18:00 | 44.11626 | 2.15014 | 37944 ft | 497 kts | 54° |
| 2026-05-06 18:01 | 44.15535 | 2.22928 | 37943 ft | 498 kts | 54° |
| 2026-05-06 18:01 | 44.19456 | 2.30886 | 37939 ft | 499 kts | 54° |
| 2026-05-06 18:02 | 44.23341 | 2.38794 | 37943 ft | 499 kts | 54° |
| 2026-05-06 18:02 | 44.27243 | 2.46759 | 37939 ft | 499 kts | 54° |
| 2026-05-06 18:03 | 44.31157 | 2.54767 | 37943 ft | 499 kts | 54° |
| 2026-05-06 18:03 | 44.35043 | 2.62744 | 37941 ft | 500 kts | 54° |
| 2026-05-06 18:04 | 44.38928 | 2.70736 | 37947 ft | 500 kts | 55° |
| 2026-05-06 18:04 | 44.42830 | 2.78789 | 37934 ft | 500 kts | 55° |
| 2026-05-06 18:05 | 44.46711 | 2.86821 | 37941 ft | 500 kts | 55° |
| 2026-05-06 18:05 | 44.50572 | 2.94834 | 37934 ft | 500 kts | 55° |
| 2026-05-06 18:06 | 44.54442 | 3.02888 | 37931 ft | 499 kts | 55° |
| 2026-05-06 18:06 | 44.58294 | 3.10932 | 37934 ft | 500 kts | 56° |
| 2026-05-06 18:07 | 44.62024 | 3.19159 | 37927 ft | 499 kts | 59° |
| 2026-05-06 18:07 | 44.65411 | 3.27559 | 37919 ft | 499 kts | 60° |
| 2026-05-06 18:08 | 44.68784 | 3.36032 | 37918 ft | 499 kts | 60° |
| 2026-05-06 18:08 | 44.72164 | 3.44512 | 37915 ft | 499 kts | 60° |
| 2026-05-06 18:09 | 44.75526 | 3.52961 | 37903 ft | 498 kts | 60° |
| 2026-05-06 18:09 | 44.78909 | 3.61477 | 37909 ft | 497 kts | 60° |
| 2026-05-06 18:10 | 44.82260 | 3.69932 | 37913 ft | 497 kts | 61° |
| 2026-05-06 18:10 | 44.85609 | 3.78418 | 37912 ft | 497 kts | 61° |
| 2026-05-06 18:11 | 44.88949 | 3.86912 | 37911 ft | 496 kts | 61° |
| 2026-05-06 18:11 | 44.92261 | 3.95360 | 37914 ft | 496 kts | 61° |
| 2026-05-06 18:12 | 44.95584 | 4.03860 | 37916 ft | 496 kts | 61° |
| 2026-05-06 18:12 | 44.98882 | 4.12323 | 37919 ft | 496 kts | 61° |
| 2026-05-06 18:13 | 45.02209 | 4.20889 | 37920 ft | 497 kts | 61° |
| 2026-05-06 18:13 | 45.05524 | 4.29444 | 37917 ft | 498 kts | 61° |
| 2026-05-06 18:14 | 45.08818 | 4.37965 | 37920 ft | 498 kts | 61° |
| 2026-05-06 18:14 | 45.12122 | 4.46544 | 37925 ft | 499 kts | 62° |
| 2026-05-06 18:15 | 45.15422 | 4.55146 | 37921 ft | 498 kts | 62° |
| 2026-05-06 18:15 | 45.18710 | 4.63742 | 37925 ft | 498 kts | 62° |
| 2026-05-06 18:16 | 45.22009 | 4.72386 | 37929 ft | 498 kts | 62° |
| 2026-05-06 18:16 | 45.25277 | 4.80977 | 37930 ft | 499 kts | 62° |
| 2026-05-06 18:17 | 45.28562 | 4.89644 | 37925 ft | 500 kts | 62° |
| 2026-05-06 18:17 | 45.31836 | 4.98310 | 37925 ft | 500 kts | 63° |
| 2026-05-06 18:18 | 45.35109 | 5.06999 | 37923 ft | 500 kts | 63° |
| 2026-05-06 18:18 | 45.38365 | 5.15673 | 37921 ft | 500 kts | 63° |
| 2026-05-06 18:19 | 45.41630 | 5.24401 | 37933 ft | 500 kts | 63° |
| 2026-05-06 18:19 | 45.44900 | 5.33078 | 37933 ft | 501 kts | 60° |
| 2026-05-06 18:20 | 45.48662 | 5.41356 | 37935 ft | 501 kts | 53° |
| 2026-05-06 18:20 | 45.53120 | 5.49007 | 37929 ft | 501 kts | 46° |
| 2026-05-06 18:21 | 45.58141 | 5.55869 | 37926 ft | 501 kts | 41° |
| 2026-05-06 18:21 | 45.63326 | 5.62405 | 37927 ft | 500 kts | 40° |
| 2026-05-06 18:22 | 45.68532 | 5.69015 | 37923 ft | 501 kts | 41° |
| 2026-05-06 18:22 | 45.73658 | 5.75585 | 37926 ft | 500 kts | 41° |
| 2026-05-06 18:23 | 45.78840 | 5.82240 | 37927 ft | 500 kts | 42° |
| 2026-05-06 18:23 | 45.83984 | 5.88863 | 37928 ft | 500 kts | 42° |
| 2026-05-06 18:24 | 45.89117 | 5.95493 | 37932 ft | 500 kts | 42° |
| 2026-05-06 18:24 | 45.94283 | 6.02178 | 37930 ft | 500 kts | 42° |
| 2026-05-06 18:25 | 45.99437 | 6.08863 | 37938 ft | 499 kts | 42° |
| 2026-05-06 18:25 | 46.04566 | 6.15541 | 37934 ft | 500 kts | 42° |
| 2026-05-06 18:26 | 46.09674 | 6.22279 | 37931 ft | 500 kts | 44° |
| 2026-05-06 18:26 | 46.14642 | 6.29288 | 37936 ft | 500 kts | 44° |
| 2026-05-06 18:27 | 46.19566 | 6.36319 | 37937 ft | 500 kts | 44° |
| 2026-05-06 18:27 | 46.24488 | 6.43349 | 37942 ft | 501 kts | 44° |
| 2026-05-06 18:28 | 46.29407 | 6.50383 | 37942 ft | 501 kts | 45° |
| 2026-05-06 18:28 | 46.34361 | 6.57486 | 37948 ft | 502 kts | 44° |
| 2026-05-06 18:29 | 46.39302 | 6.64590 | 37951 ft | 502 kts | 44° |
| 2026-05-06 18:29 | 46.44236 | 6.71701 | 37960 ft | 503 kts | 45° |
| 2026-05-06 18:30 | 46.49175 | 6.78840 | 37892 ft | 503 kts | 45° |
| 2026-05-06 18:30 | 46.54082 | 6.85964 | 37943 ft | 503 kts | 46° |
| 2026-05-06 18:31 | 46.58708 | 6.93583 | 37941 ft | 503 kts | 51° |
| 2026-05-06 18:31 | 46.63097 | 7.01507 | 37930 ft | 503 kts | 52° |
| 2026-05-06 18:32 | 46.67448 | 7.09401 | 37926 ft | 503 kts | 52° |
| 2026-05-06 18:32 | 46.71825 | 7.17340 | 37921 ft | 504 kts | 52° |
| 2026-05-06 18:33 | 46.76178 | 7.25246 | 37938 ft | 504 kts | 52° |
| 2026-05-06 18:33 | 46.80542 | 7.33190 | 37923 ft | 503 kts | 51° |
| 2026-05-06 18:34 | 46.84907 | 7.41160 | 37912 ft | 503 kts | 51° |
| 2026-05-06 18:34 | 46.89235 | 7.49094 | 37923 ft | 503 kts | 51° |
| 2026-05-06 18:35 | 46.93580 | 7.57087 | 37914 ft | 503 kts | 51° |
| 2026-05-06 18:35 | 46.97894 | 7.65050 | 37909 ft | 502 kts | 52° |
| 2026-05-06 18:36 | 47.02211 | 7.73037 | 37917 ft | 502 kts | 52° |
| 2026-05-06 18:36 | 47.06529 | 7.81054 | 37929 ft | 501 kts | 52° |
| 2026-05-06 18:37 | 47.10820 | 7.89049 | 37933 ft | 501 kts | 52° |
| 2026-05-06 18:37 | 47.14901 | 7.97268 | 37936 ft | 500 kts | 58° |
| 2026-05-06 18:38 | 47.18563 | 8.05799 | 37944 ft | 499 kts | 59° |
| 2026-05-06 18:38 | 47.22224 | 8.14463 | 37944 ft | 499 kts | 59° |
| 2026-05-06 18:39 | 47.25873 | 8.23076 | 37949 ft | 499 kts | 59° |
| 2026-05-06 18:40 | 47.30724 | 8.36519 | 37942 ft | 498 kts | 68° |
| 2026-05-06 18:40 | 47.33073 | 8.46054 | 37940 ft | 497 kts | 73° |
| 2026-05-06 18:41 | 47.35184 | 8.55729 | 37945 ft | 496 kts | 73° |
| 2026-05-06 18:41 | 47.37286 | 8.65382 | 37936 ft | 497 kts | 74° |
| 2026-05-06 18:42 | 47.39400 | 8.75070 | 37937 ft | 496 kts | 74° |
| 2026-05-06 18:42 | 47.41494 | 8.84696 | 37931 ft | 496 kts | 74° |
| 2026-05-06 18:43 | 47.43594 | 8.94380 | 37925 ft | 496 kts | 74° |
| 2026-05-06 18:43 | 47.45678 | 9.04050 | 37924 ft | 497 kts | 74° |
| 2026-05-06 18:44 | 47.47768 | 9.13772 | 37919 ft | 497 kts | 74° |
| 2026-05-06 18:44 | 47.49838 | 9.23450 | 37912 ft | 496 kts | 74° |
| 2026-05-06 18:45 | 47.51901 | 9.33154 | 37902 ft | 496 kts | 74° |
| 2026-05-06 18:45 | 47.53946 | 9.42816 | 37908 ft | 496 kts | 74° |
| 2026-05-06 18:46 | 47.55998 | 9.52555 | 37910 ft | 496 kts | 74° |
| 2026-05-06 18:46 | 47.57778 | 9.62306 | 37905 ft | 492 kts | 82° |
| 2026-05-06 18:46 | 47.58243 | 9.67288 | 37764 ft | 487 kts | 88° |
| 2026-05-06 18:47 | 47.58387 | 9.72230 | 37376 ft | 483 kts | 94° |
| 2026-05-06 18:47 | 47.58256 | 9.77173 | 36917 ft | 481 kts | 97° |
| 2026-05-06 18:47 | 47.58045 | 9.82084 | 36526 ft | 478 kts | 98° |
| 2026-05-06 18:47 | 47.57821 | 9.86985 | 35826 ft | 476 kts | 98° |
| 2026-05-06 18:48 | 47.57604 | 9.91839 | 35602 ft | 478 kts | 98° |
| 2026-05-06 18:48 | 47.57391 | 9.96732 | 34923 ft | 480 kts | 99° |
| 2026-05-06 18:48 | 47.57182 | 10.01637 | 34501 ft | 482 kts | 99° |
| 2026-05-06 18:48 | 47.56971 | 10.06566 | 33909 ft | 484 kts | 99° |
| 2026-05-06 18:49 | 47.56755 | 10.11571 | 33296 ft | 485 kts | 99° |
| 2026-05-06 18:49 | 47.56543 | 10.16477 | 32690 ft | 486 kts | 99° |
| 2026-05-06 18:49 | 47.56324 | 10.21480 | 31978 ft | 489 kts | 99° |
| 2026-05-06 18:49 | 47.56107 | 10.26448 | 31170 ft | 485 kts | 99° |
| 2026-05-06 18:50 | 47.55893 | 10.31383 | 30342 ft | 477 kts | 99° |
| 2026-05-06 18:50 | 47.55680 | 10.36177 | 29475 ft | 468 kts | 99° |
| 2026-05-06 18:50 | 47.55462 | 10.40938 | 28607 ft | 463 kts | 99° |
| 2026-05-06 18:50 | 47.55242 | 10.45615 | 27754 ft | 457 kts | 99° |
| 2026-05-06 18:51 | 47.55030 | 10.50230 | 26893 ft | 449 kts | 97° |
| 2026-05-06 18:51 | 47.55209 | 10.54840 | 26084 ft | 459 kts | 82° |
| 2026-05-06 18:51 | 47.56231 | 10.59363 | 25222 ft | 472 kts | 65° |
| 2026-05-06 18:51 | 47.57880 | 10.63584 | 24450 ft | 476 kts | 60° |
| 2026-05-06 18:52 | 47.59610 | 10.67717 | 23683 ft | 479 kts | 60° |
| 2026-05-06 18:52 | 47.61360 | 10.71905 | 22885 ft | 477 kts | 61° |
| 2026-05-06 18:52 | 47.63069 | 10.76061 | 22052 ft | 462 kts | 61° |
| 2026-05-06 18:52 | 47.64668 | 10.80011 | 21301 ft | 445 kts | 62° |
| 2026-05-06 18:53 | 47.66224 | 10.83891 | 20590 ft | 429 kts | 62° |
| 2026-05-06 18:53 | 47.67794 | 10.87532 | 19916 ft | 416 kts | 55° |
| 2026-05-06 18:53 | 47.69664 | 10.90704 | 19295 ft | 405 kts | 45° |
| 2026-05-06 18:53 | 47.71757 | 10.93399 | 18726 ft | 402 kts | 40° |
| 2026-05-06 18:54 | 47.73948 | 10.95969 | 18149 ft | 399 kts | 39° |
| 2026-05-06 18:54 | 47.76112 | 10.98478 | 17577 ft | 395 kts | 39° |
| 2026-05-06 18:54 | 47.78263 | 11.00993 | 17008 ft | 391 kts | 40° |
| 2026-05-06 18:54 | 47.80371 | 11.03479 | 16441 ft | 387 kts | 40° |
| 2026-05-06 18:55 | 47.82444 | 11.05942 | 16001 ft | 384 kts | 40° |
| 2026-05-06 18:55 | 47.84534 | 11.08435 | 15875 ft | 384 kts | 40° |
| 2026-05-06 18:55 | 47.86623 | 11.10931 | 15869 ft | 385 kts | 40° |
| 2026-05-06 18:55 | 47.88508 | 11.13685 | 15849 ft | 382 kts | 57° |
| 2026-05-06 18:56 | 47.89841 | 11.17102 | 15878 ft | 381 kts | 65° |
| 2026-05-06 18:56 | 47.91024 | 11.20628 | 15869 ft | 381 kts | 66° |
| 2026-05-06 18:56 | 47.92208 | 11.24127 | 15867 ft | 381 kts | 65° |
| 2026-05-06 18:56 | 47.93444 | 11.27648 | 15873 ft | 381 kts | 64° |
| 2026-05-06 18:57 | 47.94685 | 11.31085 | 15857 ft | 382 kts | 63° |
| 2026-05-06 18:57 | 47.95974 | 11.34591 | 15861 ft | 382 kts | 63° |
| 2026-05-06 18:57 | 47.97257 | 11.38044 | 15878 ft | 382 kts | 63° |
| 2026-05-06 18:57 | 47.98535 | 11.41471 | 15867 ft | 382 kts | 63° |
| 2026-05-06 18:58 | 47.99831 | 11.44940 | 15712 ft | 383 kts | 63° |
| 2026-05-06 18:58 | 48.01123 | 11.48396 | 15366 ft | 379 kts | 63° |
| 2026-05-06 18:58 | 48.02398 | 11.51809 | 14981 ft | 378 kts | 62° |
| 2026-05-06 18:58 | 48.03668 | 11.55209 | 14492 ft | 376 kts | 63° |
| 2026-05-06 18:59 | 48.04929 | 11.58588 | 13999 ft | 373 kts | 63° |
| 2026-05-06 18:59 | 48.06177 | 11.61938 | 13485 ft | 371 kts | 62° |
| 2026-05-06 18:59 | 48.07434 | 11.65318 | 12812 ft | 367 kts | 63° |
| 2026-05-06 18:59 | 48.08647 | 11.68586 | 12146 ft | 363 kts | 63° |
| 2026-05-06 19:00 | 48.09870 | 11.71880 | 11467 ft | 358 kts | 63° |
| 2026-05-06 19:00 | 48.11056 | 11.75083 | 10793 ft | 353 kts | 63° |
| 2026-05-06 19:00 | 48.12221 | 11.78231 | 10120 ft | 346 kts | 62° |
| 2026-05-06 19:00 | 48.13379 | 11.81362 | 9425 ft | 339 kts | 62° |
| 2026-05-06 19:01 | 48.14486 | 11.84374 | 8788 ft | 331 kts | 61° |
| 2026-05-06 19:01 | 48.15582 | 11.87355 | 8275 ft | 321 kts | 60° |
| 2026-05-06 19:01 | 48.16650 | 11.90256 | 7770 ft | 312 kts | 60° |
| 2026-05-06 19:01 | 48.17679 | 11.93056 | 7270 ft | 305 kts | 59° |
| 2026-05-06 19:02 | 48.18678 | 11.95777 | 6772 ft | 300 kts | 58° |
| 2026-05-06 19:02 | 48.19668 | 11.98475 | 6278 ft | 295 kts | 58° |
| 2026-05-06 19:02 | 48.20648 | 12.01138 | 6005 ft | 288 kts | 58° |
| 2026-05-06 19:02 | 48.21623 | 12.03780 | 5988 ft | 292 kts | 58° |
| 2026-05-06 19:03 | 48.22595 | 12.06422 | 5990 ft | 292 kts | 58° |
| 2026-05-06 19:03 | 48.23584 | 12.09118 | 6018 ft | 294 kts | 58° |
| 2026-05-06 19:03 | 48.24558 | 12.11784 | 6004 ft | 293 kts | 58° |
| 2026-05-06 19:03 | 48.25620 | 12.14354 | 5984 ft | 288 kts | 43° |
| 2026-05-06 19:04 | 48.27195 | 12.16068 | 5984 ft | 276 kts | 15° |
| 2026-05-06 19:04 | 48.29047 | 12.16610 | 5891 ft | 270 kts | 358° |
| 2026-05-06 19:04 | 48.30916 | 12.16701 | 5475 ft | 273 kts | 355° |
| 2026-05-06 19:04 | 48.32840 | 12.16696 | 5106 ft | 276 kts | 354° |
| 2026-05-06 19:05 | 48.34650 | 12.16213 | 4966 ft | 260 kts | 330° |
| 2026-05-06 19:05 | 48.36002 | 12.14588 | 4966 ft | 240 kts | 303° |
| 2026-05-06 19:05 | 48.36804 | 12.12560 | 4952 ft | 218 kts | 290° |
| 2026-05-06 19:05 | 48.36966 | 12.10378 | 4993 ft | 204 kts | 266° |
| 2026-05-06 19:06 | 48.36767 | 12.08337 | 4983 ft | 194 kts | 262° |
| 2026-05-06 19:06 | 48.36552 | 12.06391 | 4975 ft | 182 kts | 263° |
| 2026-05-06 19:06 | 48.36372 | 12.04576 | 4965 ft | 169 kts | 264° |
| 2026-05-06 19:06 | 48.36218 | 12.02835 | 4982 ft | 170 kts | 265° |
| 2026-05-06 19:07 | 48.36073 | 12.01068 | 4983 ft | 170 kts | 265° |
| 2026-05-06 19:07 | 48.35934 | 11.99296 | 4987 ft | 170 kts | 265° |
| 2026-05-06 19:07 | 48.35797 | 11.97526 | 4990 ft | 171 kts | 265° |
| 2026-05-06 19:07 | 48.35661 | 11.95758 | 4988 ft | 170 kts | 265° |
| 2026-05-06 19:08 | 48.35525 | 11.93992 | 5000 ft | 169 kts | 265° |
| 2026-05-06 19:08 | 48.35397 | 11.92346 | 4993 ft | 150 kts | 265° |
| 2026-05-06 19:08 | 48.35284 | 11.90907 | 4968 ft | 131 kts | 265° |
| 2026-05-06 19:08 | 48.35180 | 11.89557 | 4982 ft | 129 kts | 265° |
| 2026-05-06 19:09 | 48.35076 | 11.88209 | 4807 ft | 131 kts | 265° |
| 2026-05-06 19:09 | 48.34972 | 11.86845 | 4459 ft | 134 kts | 265° |
| 2026-05-06 19:09 | 48.34862 | 11.85442 | 3968 ft | 147 kts | 265° |
| 2026-05-06 19:09 | 48.34735 | 11.83758 | 2926 ft | 184 kts | 264° |
| 2026-05-06 19:10 | 48.34576 | 11.81774 | 2009 ft | 203 kts | 265° |
| 2026-05-06 19:10 | 48.34428 | 11.79682 | 1566 ft | 195 kts | 264° |
| 2026-05-06 19:10 | 48.34353 | 11.77735 | 2410 ft | 183 kts | 266° |
| 2026-05-06 19:10 | 48.34244 | 11.75951 | 3429 ft | 170 kts | 266° |
| 2026-05-06 19:11 | 48.34133 | 11.74288 | 4368 ft | 159 kts | 265° |
| 2026-05-06 19:11 | 48.34022 | 11.72678 | 5075 ft | 161 kts | 263° |
| 2026-05-06 19:11 | 48.33544 | 11.71072 | 5518 ft | 184 kts | 227° |
| 2026-05-06 19:11 | 48.32351 | 11.70171 | 6009 ft | 211 kts | 193° |
| 2026-05-06 19:12 | 48.30822 | 11.70443 | 6446 ft | 240 kts | 165° |
| 2026-05-06 19:12 | 48.29265 | 11.71538 | 7055 ft | 253 kts | 155° |